Flight Track Log - Related Links

Times and Time Zones

All times are in EDT time to prevent confusion due to time zone crossing. See the N569SC flight status page for this flight to view local times or setup timezone preferences in your user account.

Time Position Orientation Groundspeed Altitude Reporting Facility
EDT Latitude Longitude Course Direction KTS MPH feet Rate Location/Type
Fri 11:21:06 AM 42.6656 -83.3983 77° East 187 215 1,800  Level Cleveland Center
Fri 11:21:48 AM 42.6753 -83.3394 77° East 262 302 3,700 3,471 Climbing Cleveland Center
Fri 11:22:48 AM 42.7569 -83.3261 North 326 375 7,700 4,000 Climbing Cleveland Center
Fri 11:23:48 AM 42.8397 -83.3497 348° North 321 369 11,700 3,750 Climbing Cleveland Center
Fri 11:24:48 AM 42.9267 -83.3706 350° North 316 364 15,200 3,126 Climbing Cleveland Center
Fri 11:25:47 AM 43.0183 -83.3689 North 316 364 17,900 2,500 Climbing Cleveland Center
Fri 11:26:48 AM 43.1139 -83.3875 352° North 328 377 20,200 2,479 Climbing Cleveland Center
Fri 11:27:48 AM 43.2000 -83.4483 333° Northwest 337 388 22,900 2,319 Climbing Cleveland Center
Fri 11:28:47 AM 43.2922 -83.5125 333° Northwest 351 404 24,800 1,900 Climbing Cleveland Center
Fri 11:29:48 AM 43.3925 -83.5772 335° Northwest 373 429 26,700 1,736 Climbing Cleveland Center
Fri 11:30:48 AM 43.4722 -83.6356 332° Northwest 388 447 28,300 2,013 Climbing Cleveland Center
Fri 11:32:26 AM 43.5589 -83.8878 295° West 407 468 32,000 2,100 Climbing Minneapolis Center
Fri 11:33:28 AM 43.5958 -84.0342 289° West 407 468 33,900 1,902 Climbing Minneapolis Center
Fri 11:34:29 AM 43.6339 -84.1822 290° West 410 472 35,900 1,756 Climbing Minneapolis Center
Fri 11:35:31 AM 43.6617 -84.2947 289° West 400 460 37,500 1,707 Climbing Minneapolis Center
Fri 11:36:32 AM 43.7042 -84.4631 289° West 391 450 39,400 1,220 Climbing Minneapolis Center
Fri 11:37:34 AM 43.7364 -84.6053 287° West 390 449 40,000 290 Climbing Minneapolis Center
Fri 11:38:36 AM 43.7642 -84.7522 285° West 394 453 40,000  Level Minneapolis Center
Fri 11:39:37 AM 43.8003 -84.9261 286° West 395 455 40,000  Level Minneapolis Center
Fri 11:40:39 AM 43.8278 -85.0692 285° West 390 449 40,000  Level Minneapolis Center
Fri 11:41:41 AM 43.8564 -85.2128 285° West 389 448 40,000  Level Minneapolis Center
Fri 11:42:42 AM 43.8853 -85.3556 286° West 388 447 40,000  Level Minneapolis Center
Fri 11:43:44 AM 43.9125 -85.4975 285° West 386 444 40,000  Level Minneapolis Center
Fri 11:44:46 AM 43.9403 -85.6386 285° West 383 441 40,000  Level Minneapolis Center
Fri 11:45:48 AM 43.9722 -85.8078 285° West 381 438 40,000  Level Minneapolis Center
Fri 11:46:49 AM 43.9994 -85.9489 285° West 381 438 40,000  Level Minneapolis Center
Fri 11:47:51 AM 44.0267 -86.0897 285° West 380 437 40,000  Level Minneapolis Center
Fri 11:48:53 AM 44.0519 -86.2314 284° West 379 436 40,000  Level Minneapolis Center
Fri 11:49:54 AM 44.0744 -86.3456 285° West 382 440 40,000  Level Minneapolis Center
Fri 11:50:56 AM 44.1053 -86.5167 284° West 383 441 40,000  Level Minneapolis Center
Fri 11:51:58 AM 44.1369 -86.6894 284° West 385 443 40,000  Level Minneapolis Center
Fri 11:52:59 AM 44.1608 -86.8250 284° West 385 443 40,000  Level Minneapolis Center
Fri 11:54:01 AM 44.1872 -86.9708 284° West 387 445 40,000  Level Minneapolis Center
Fri 11:55:03 AM 44.2133 -87.1172 284° West 388 447 40,000  Level Minneapolis Center
Fri 11:56:04 AM 44.2394 -87.2600 284° West 388 447 40,000  Level Minneapolis Center
Fri 11:57:06 AM 44.2694 -87.4322 284° West 390 449 40,000  Level Minneapolis Center
Fri 11:58:08 AM 44.2956 -87.5789 284° West 391 450 40,000  Level Minneapolis Center
Fri 11:59:09 AM 44.3194 -87.7244 283° West 387 445 40,000  Level Minneapolis Center
Fri 12:00:11 PM 44.3414 -87.8461 284° West 388 447 40,000  Level Minneapolis Center
Fri 12:01:13 PM 44.3747 -88.0392 284° West 385 443 40,000  Level Minneapolis Center
Fri 12:02:14 PM 44.3986 -88.1853 283° West 386 444 40,000  Level Minneapolis Center
Fri 12:03:16 PM 44.4233 -88.3303 283° West 384 442 40,000  Level Minneapolis Center
Fri 12:04:17 PM 44.4467 -88.4764 283° West 384 442 40,000  Level Minneapolis Center
Fri 12:05:31 PM 44.4703 -88.6239 283° West 389 448 40,000  Level Minneapolis Center
Fri 12:06:33 PM 44.5033 -88.8169 284° West 386 444 40,000  Level Minneapolis Center
Fri 12:07:35 PM 44.5264 -88.9656 282° West 387 445 40,000  Level Minneapolis Center
Fri 12:08:36 PM 44.5489 -89.1150 282° West 391 450 40,000  Level Minneapolis Center
Fri 12:09:50 PM 44.5739 -89.2639 283° West 391 450 40,000 -485 Level Minneapolis Center
Fri 12:10:52 PM 44.6000 -89.4400 282° West 395 455 38,900 -1,512 Descending Minneapolis Center
Fri 12:11:53 PM 44.6211 -89.5711 283° West 409 471 36,900 -2,683 Descending Minneapolis Center
Fri 12:12:55 PM 44.6528 -89.7842 282° West 417 480 33,400 -2,371 Descending Minneapolis Center
Fri 12:13:57 PM 44.6775 -89.9431 282° West 417 480 32,000 -823 Descending Minneapolis Center
Fri 12:14:59 PM 44.6922 -90.0861 278° West 379 436 31,700 -634 Descending Minneapolis Center
Fri 12:16:00 PM 44.6969 -90.2319 273° West 372 428 30,700 -1,122 Descending Minneapolis Center
Fri 12:17:02 PM 44.7033 -90.3856 273° West 390 449 29,400 -823 Descending Minneapolis Center
Fri 12:18:04 PM 44.7108 -90.5536 274° West 398 458 29,000 -195 Descending Minneapolis Center
Fri 12:19:05 PM 44.7167 -90.7053 273° West 393 452 29,000  Level Minneapolis Center
Fri 12:20:07 PM 44.7219 -90.8561 273° West 389 448 29,000  Level Minneapolis Center
Fri 12:21:09 PM 44.7267 -91.0058 273° West 387 445 29,000 -244 Level Minneapolis Center
Fri 12:22:10 PM 44.7322 -91.1864 273° West 387 445 28,500 -1,415 Descending Minneapolis Center
Fri 12:23:12 PM 44.7397 -91.3414 274° West 392 451 26,100 -2,419 Descending Minneapolis Center
Fri 12:24:14 PM 44.7447 -91.5000 273° West 404 465 23,500 -2,488 Descending Minneapolis Center
Fri 12:25:15 PM 44.7503 -91.6542 273° West 402 463 21,000 -2,341 Descending Minneapolis Center
Fri 12:26:17 PM 44.7550 -91.7964 273° West 379 436 18,700 -2,129 Descending Minneapolis Center
Fri 12:27:19 PM 44.7833 -91.9311 287° West 369 425 16,600 -2,488 Descending Minneapolis Center
Fri 12:28:20 PM 44.8242 -92.0917 290° West 366 421 13,600 -2,634 Descending Minneapolis Center
Fri 12:29:22 PM 44.8578 -92.2225 290° West 358 412 11,200 -1,742 Descending Minneapolis Center
Fri 12:30:24 PM 44.8681 -92.3433 277° West 316 364 10,000 -878 Descending Minneapolis Center
Fri 12:31:25 PM 44.8272 -92.4425 240° Southwest 293 337 9,400 -537 Descending Minneapolis Center
Fri 12:32:27 PM 44.7894 -92.5383 241° Southwest 283 326 8,900 -871 Descending Minneapolis Center
Fri 12:33:29 PM 44.7547 -92.6367 244° Southwest 283 326 7,600 -1,366 Descending Minneapolis Center
Fri 12:34:30 PM 44.7422 -92.7517 261° West 293 337 6,100 -976 Descending Minneapolis Center
Fri 12:35:32 PM 44.7322 -92.8711 263° West 252 290 5,600 -677 Descending Minneapolis Center
Fri 12:36:34 PM 44.7564 -92.9319 299° West 230 265 4,700 -774 Descending Minneapolis Center
Fri 12:37:36 PM 44.7936 -93.0189 301° West 218 251 4,000 -829 Descending Minneapolis Center
Fri 12:38:37 PM 44.8192 -93.0758 302° West 179 206 3,000 -829 Descending Minneapolis Center
Fri 12:39:39 PM 44.8378 -93.1186 302° West 124 143 2,300 -726 Descending Minneapolis Center
Fri 12:40:41 PM 44.8586 -93.1667 301° West 120 138 1,500 -774 Descending Minneapolis Center
Fri 12:42:00 PM 44.8667 -93.2167 270° West  Level FlightAware Approximate
Fri 12:49:00 PM 44.8820 -93.2218 270° West  Level Estimated

Login

Don't have an account? Register now (free) for customized features, flight alerts, and more!